<?xml version="1.0" encoding="utf-8"?>
<gpx xmlns:xsi="http://www.w3.org/2001/XMLSchema-instance" xmlns:xsd="http://www.w3.org/2001/XMLSchema" version="1.1" creator="Shapelink.com" xmlns="http://www.topografix.com/GPX/1/1" xmlns:gpxtpx="http://www.garmin.com/xmlschemas/TrackPointExtension/v1">
  <metadata>
    <name>Övrigt 2.68 km, 2020-08-05</name>
    <desc></desc>
    <author><name>Marian Moron</name></author> 
    <time>2020-08-05T20:39:19Z</time>
  </metadata>
  <trk>
    <name>Övrigt 2.68 km, 2020-08-05</name>
    <trkseg>
      <trkpt lat="51.229877924758" lon="4.457999764751">
        <ele>0</ele>
        <time>2020-08-05T20:39:19Z</time>
      </trkpt>
      <trkpt lat="51.230011113149" lon="4.458704011989">
        <ele>11</ele>
        <time>2020-08-05T20:39:46Z</time>
      </trkpt>
      <trkpt lat="51.230237089173" lon="4.458959324663">
        <ele>7.2</ele>
        <time>2020-08-05T20:40:28Z</time>
      </trkpt>
      <trkpt lat="51.230399027481" lon="4.459028559157">
        <ele>5.2</ele>
        <time>2020-08-05T20:40:53Z</time>
      </trkpt>
      <trkpt lat="51.230459377161" lon="4.459388142667">
        <ele>0</ele>
        <time>2020-08-05T20:41:17Z</time>
      </trkpt>
      <trkpt lat="51.230468261975" lon="4.459453102392">
        <ele>0</ele>
        <time>2020-08-05T20:41:21Z</time>
      </trkpt>
      <trkpt lat="51.230487791802" lon="4.45957899853">
        <ele>0</ele>
        <time>2020-08-05T20:41:30Z</time>
      </trkpt>
      <trkpt lat="51.230510758208" lon="4.459669942145">
        <ele>0</ele>
        <time>2020-08-05T20:41:40Z</time>
      </trkpt>
      <trkpt lat="51.230512602226" lon="4.459725095047">
        <ele>0</ele>
        <time>2020-08-05T20:41:44Z</time>
      </trkpt>
      <trkpt lat="51.230562139255" lon="4.45981872087">
        <ele>0</ele>
        <time>2020-08-05T20:41:55Z</time>
      </trkpt>
      <trkpt lat="51.230623243306" lon="4.460104459841">
        <ele>0</ele>
        <time>2020-08-05T20:42:23Z</time>
      </trkpt>
      <trkpt lat="51.230560546694" lon="4.460703933329">
        <ele>0</ele>
        <time>2020-08-05T20:43:21Z</time>
      </trkpt>
      <trkpt lat="51.230506483439" lon="4.46071977512">
        <ele>0</ele>
        <time>2020-08-05T20:43:26Z</time>
      </trkpt>
      <trkpt lat="51.230065595499" lon="4.460882216342">
        <ele>0.8</ele>
        <time>2020-08-05T20:44:01Z</time>
      </trkpt>
      <trkpt lat="51.229628647052" lon="4.461064522667">
        <ele>1.2</ele>
        <time>2020-08-05T20:44:38Z</time>
      </trkpt>
      <trkpt lat="51.229605596827" lon="4.461138953939">
        <ele>1</ele>
        <time>2020-08-05T20:45:17Z</time>
      </trkpt>
      <trkpt lat="51.229861999148" lon="4.461481186916">
        <ele>1.4</ele>
        <time>2020-08-05T20:45:55Z</time>
      </trkpt>
      <trkpt lat="51.230026368207" lon="4.461980831975">
        <ele>1.4</ele>
        <time>2020-08-05T20:46:24Z</time>
      </trkpt>
      <trkpt lat="51.230201214641" lon="4.462642415342">
        <ele>1</ele>
        <time>2020-08-05T20:46:59Z</time>
      </trkpt>
      <trkpt lat="51.23033624705" lon="4.463241302097">
        <ele>0</ele>
        <time>2020-08-05T20:47:29Z</time>
      </trkpt>
      <trkpt lat="51.230321411087" lon="4.463308357297">
        <ele>0</ele>
        <time>2020-08-05T20:47:35Z</time>
      </trkpt>
      <trkpt lat="51.230309844065" lon="4.463389997003">
        <ele>0</ele>
        <time>2020-08-05T20:47:39Z</time>
      </trkpt>
      <trkpt lat="51.230319650888" lon="4.463571381319">
        <ele>0</ele>
        <time>2020-08-05T20:47:49Z</time>
      </trkpt>
      <trkpt lat="51.23035217266" lon="4.463649332989">
        <ele>0</ele>
        <time>2020-08-05T20:48:04Z</time>
      </trkpt>
      <trkpt lat="51.230370780478" lon="4.46381856355">
        <ele>1.2</ele>
        <time>2020-08-05T20:48:12Z</time>
      </trkpt>
      <trkpt lat="51.230265084719" lon="4.463938843815">
        <ele>1.8</ele>
        <time>2020-08-05T20:48:27Z</time>
      </trkpt>
      <trkpt lat="51.230041120351" lon="4.464205472054">
        <ele>4.4</ele>
        <time>2020-08-05T20:49:01Z</time>
      </trkpt>
      <trkpt lat="51.229601070601" lon="4.464269174494">
        <ele>9.6</ele>
        <time>2020-08-05T20:49:46Z</time>
      </trkpt>
      <trkpt lat="51.2293849014" lon="4.464286608846">
        <ele>11.6</ele>
        <time>2020-08-05T20:50:12Z</time>
      </trkpt>
      <trkpt lat="51.229068568494" lon="4.46432650669">
        <ele>9.4</ele>
        <time>2020-08-05T20:50:47Z</time>
      </trkpt>
      <trkpt lat="51.228997825258" lon="4.464277388756">
        <ele>7.6</ele>
        <time>2020-08-05T20:50:56Z</time>
      </trkpt>
      <trkpt lat="51.228918448665" lon="4.464392891338">
        <ele>3.8</ele>
        <time>2020-08-05T20:51:14Z</time>
      </trkpt>
      <trkpt lat="51.228806047386" lon="4.464441590177">
        <ele>1.4</ele>
        <time>2020-08-05T20:51:38Z</time>
      </trkpt>
      <trkpt lat="51.22874117148" lon="4.4646357988">
        <ele>3.2</ele>
        <time>2020-08-05T20:52:17Z</time>
      </trkpt>
      <trkpt lat="51.228742764041" lon="4.464666057459">
        <ele>3.6</ele>
        <time>2020-08-05T20:52:19Z</time>
      </trkpt>
      <trkpt lat="51.22872105492" lon="4.465368712136">
        <ele>4.8</ele>
        <time>2020-08-05T20:53:05Z</time>
      </trkpt>
      <trkpt lat="51.228469765558" lon="4.465926862857">
        <ele>0.8</ele>
        <time>2020-08-05T20:53:47Z</time>
      </trkpt>
      <trkpt lat="51.228265666293" lon="4.466121322937">
        <ele>4.8</ele>
        <time>2020-08-05T20:54:10Z</time>
      </trkpt>
      <trkpt lat="51.228143625829" lon="4.466252583491">
        <ele>4.2</ele>
        <time>2020-08-05T20:55:27Z</time>
      </trkpt>
      <trkpt lat="51.227988979774" lon="4.466754826939">
        <ele>8.4</ele>
        <time>2020-08-05T20:56:06Z</time>
      </trkpt>
      <trkpt lat="51.228357951012" lon="4.467079374107">
        <ele>7</ele>
        <time>2020-08-05T20:56:45Z</time>
      </trkpt>
      <trkpt lat="51.228522152433" lon="4.467279282422">
        <ele>11.2</ele>
        <time>2020-08-05T20:57:08Z</time>
      </trkpt>
      <trkpt lat="51.228888106187" lon="4.467472988131">
        <ele>11.8</ele>
        <time>2020-08-05T20:57:42Z</time>
      </trkpt>
      <trkpt lat="51.229345255013" lon="4.467582707202">
        <ele>6</ele>
        <time>2020-08-05T20:58:15Z</time>
      </trkpt>
      <trkpt lat="51.229427313814" lon="4.467606679436">
        <ele>4.4</ele>
        <time>2020-08-05T20:58:24Z</time>
      </trkpt>
      <trkpt lat="51.229873314713" lon="4.467492434139">
        <ele>2.8</ele>
        <time>2020-08-05T20:58:57Z</time>
      </trkpt>
      <trkpt lat="51.23004958607" lon="4.467481956764">
        <ele>3.6</ele>
        <time>2020-08-05T20:59:14Z</time>
      </trkpt>
      <trkpt lat="51.230489132906" lon="4.467369220209">
        <ele>8.8</ele>
        <time>2020-08-05T20:59:52Z</time>
      </trkpt>
      <trkpt lat="51.230928931199" lon="4.467177609975">
        <ele>6.4</ele>
        <time>2020-08-05T21:00:26Z</time>
      </trkpt>
      <trkpt lat="51.231272337642" lon="4.466818613198">
        <ele>3.8</ele>
        <time>2020-08-05T21:01:06Z</time>
      </trkpt>
      <trkpt lat="51.231291532193" lon="4.466791204385">
        <ele>3.6</ele>
        <time>2020-08-05T21:01:08Z</time>
      </trkpt>
      <trkpt lat="51.231399155789" lon="4.466535640254">
        <ele>3</ele>
        <time>2020-08-05T21:01:31Z</time>
      </trkpt>
      <trkpt lat="51.231427989525" lon="4.466458526774">
        <ele>4.2</ele>
        <time>2020-08-05T21:01:39Z</time>
      </trkpt>
      <trkpt lat="51.231638459034" lon="4.466040772878">
        <ele>8.2</ele>
        <time>2020-08-05T21:02:09Z</time>
      </trkpt>
      <trkpt lat="51.231830236906" lon="4.465532745919">
        <ele>9.2</ele>
        <time>2020-08-05T21:02:47Z</time>
      </trkpt>
      <trkpt lat="51.232017823828" lon="4.465145334501">
        <ele>9.4</ele>
        <time>2020-08-05T21:03:15Z</time>
      </trkpt>
      <trkpt lat="51.23205286017" lon="4.465052965963">
        <ele>8.8</ele>
        <time>2020-08-05T21:03:20Z</time>
      </trkpt>
      <trkpt lat="51.232105833778" lon="4.46498448584">
        <ele>7.6</ele>
        <time>2020-08-05T21:03:27Z</time>
      </trkpt>
      <trkpt lat="51.232303227523" lon="4.464454330665">
        <ele>11</ele>
        <time>2020-08-05T21:04:03Z</time>
      </trkpt>
      <trkpt lat="51.232380089546" lon="4.463986369188">
        <ele>6.2</ele>
        <time>2020-08-05T21:04:26Z</time>
      </trkpt>
      <trkpt lat="51.232356368769" lon="4.463341717259">
        <ele>8.6</ele>
        <time>2020-08-05T21:05:17Z</time>
      </trkpt>
      <trkpt lat="51.232178840127" lon="4.462782141615">
        <ele>5.8</ele>
        <time>2020-08-05T21:06:21Z</time>
      </trkpt>
      <trkpt lat="51.232151431314" lon="4.462777280113">
        <ele>5.4</ele>
        <time>2020-08-05T21:07:06Z</time>
      </trkpt>
      <trkpt lat="51.232117065524" lon="4.462616347633">
        <ele>3.6</ele>
        <time>2020-08-05T21:07:19Z</time>
      </trkpt>
      <trkpt lat="51.232126285614" lon="4.462386851211">
        <ele>2.6</ele>
        <time>2020-08-05T21:07:42Z</time>
      </trkpt>
      <trkpt lat="51.232137182084" lon="4.46226204472">
        <ele>4.4</ele>
        <time>2020-08-05T21:07:52Z</time>
      </trkpt>
      <trkpt lat="51.232162495422" lon="4.462134975116">
        <ele>6.8</ele>
        <time>2020-08-05T21:08:08Z</time>
      </trkpt>
      <trkpt lat="51.232149503477" lon="4.462078984024">
        <ele>6.6</ele>
        <time>2020-08-05T21:08:12Z</time>
      </trkpt>
      <trkpt lat="51.232088986159" lon="4.461588475236">
        <ele>7.6</ele>
        <time>2020-08-05T21:08:42Z</time>
      </trkpt>
      <trkpt lat="51.232028133565" lon="4.461299132048">
        <ele>6</ele>
        <time>2020-08-05T21:09:05Z</time>
      </trkpt>
      <trkpt lat="51.231888155835" lon="4.460739472585">
        <ele>7.6</ele>
        <time>2020-08-05T21:09:37Z</time>
      </trkpt>
      <trkpt lat="51.231841887747" lon="4.460277797533">
        <ele>5</ele>
        <time>2020-08-05T21:10:05Z</time>
      </trkpt>
      <trkpt lat="51.231831326553" lon="4.459950903433">
        <ele>6.4</ele>
        <time>2020-08-05T21:10:36Z</time>
      </trkpt>
      <trkpt lat="51.231857645719" lon="4.459880495473">
        <ele>8.4</ele>
        <time>2020-08-05T21:10:42Z</time>
      </trkpt>
      <trkpt lat="51.231815736219" lon="4.459576819236">
        <ele>6.8</ele>
        <time>2020-08-05T21:11:30Z</time>
      </trkpt>
      <trkpt lat="51.231758320204" lon="4.459489731295">
        <ele>6.6</ele>
        <time>2020-08-05T21:11:48Z</time>
      </trkpt>
      <trkpt lat="51.231667711865" lon="4.459423765742">
        <ele>8.6</ele>
        <time>2020-08-05T21:12:02Z</time>
      </trkpt>
      <trkpt lat="51.231546006677" lon="4.458724296187">
        <ele>5.4</ele>
        <time>2020-08-05T21:12:46Z</time>
      </trkpt>
      <trkpt lat="51.231442993126" lon="4.458489435349">
        <ele>2.8</ele>
        <time>2020-08-05T21:13:18Z</time>
      </trkpt>
      <trkpt lat="51.231162115657" lon="4.458690014216">
        <ele>5.4</ele>
        <time>2020-08-05T21:13:52Z</time>
      </trkpt>
      <trkpt lat="51.230719048423" lon="4.458809456291">
        <ele>8</ele>
        <time>2020-08-05T21:14:32Z</time>
      </trkpt>
      <trkpt lat="51.230551075147" lon="4.458780119641">
        <ele>21.6</ele>
        <time>2020-08-05T21:15:13Z</time>
      </trkpt>
      <trkpt lat="51.230128962663" lon="4.458996037385">
        <ele>7.8</ele>
        <time>2020-08-05T21:16:00Z</time>
      </trkpt>
      <trkpt lat="51.229698635917" lon="4.459077257996">
        <ele>9</ele>
        <time>2020-08-05T21:17:17Z</time>
      </trkpt>
      <trkpt lat="51.229498979059" lon="4.459130147785">
        <ele>10.4</ele>
        <time>2020-08-05T21:17:37Z</time>
      </trkpt>
      <trkpt lat="51.229417004077" lon="4.459148755603">
        <ele>10.6</ele>
        <time>2020-08-05T21:17:48Z</time>
      </trkpt>
      <trkpt lat="51.229333017439" lon="4.459197202985">
        <ele>7</ele>
        <time>2020-08-05T21:18:01Z</time>
      </trkpt>
      <trkpt lat="51.228890201662" lon="4.459197873537">
        <ele>8.4</ele>
        <time>2020-08-05T21:18:50Z</time>
      </trkpt>
      <trkpt lat="51.228601445207" lon="4.459259899597">
        <ele>9.4</ele>
        <time>2020-08-05T21:19:24Z</time>
      </trkpt>
      <trkpt lat="51.228548639237" lon="4.459176415873">
        <ele>7.2</ele>
        <time>2020-08-05T21:19:34Z</time>
      </trkpt>
      <trkpt lat="51.228552411092" lon="4.458929149823">
        <ele>7.4</ele>
        <time>2020-08-05T21:19:52Z</time>
      </trkpt>
      <trkpt lat="51.228503544615" lon="4.458245773516">
        <ele>0</ele>
        <time>2020-08-05T21:20:40Z</time>
      </trkpt>
      <trkpt lat="51.228574120213" lon="4.458204115473">
        <ele>1</ele>
        <time>2020-08-05T21:20:46Z</time>
      </trkpt>
      <trkpt lat="51.229023054777" lon="4.458106382519">
        <ele>12.8</ele>
        <time>2020-08-05T21:21:33Z</time>
      </trkpt>
      <trkpt lat="51.229438126465" lon="4.457989706471">
        <ele>16.4</ele>
        <time>2020-08-05T21:22:17Z</time>
      </trkpt>
      <trkpt lat="51.229648344517" lon="4.457944611849">
        <ele>23.2</ele>
        <time>2020-08-05T21:22:40Z</time>
      </trkpt>
      <trkpt lat="51.22968748799" lon="4.457987443358">
        <ele>27.4</ele>
        <time>2020-08-05T21:23:07Z</time>
      </trkpt>
    </trkseg>
  </trk>
</gpx>